Flight Track Log - Related Links

Times and Time Zones

All times are in EDT time to prevent confusion due to time zone crossing. See the AAL2007 flight status page for this flight to view local times or setup timezone preferences in your user account.

Time Position Orientation Groundspeed Altitude Reporting Facility
EDT Latitude Longitude Course Direction KTS MPH feet Rate Location/Type
Tue 06:37:42 PM 42.0167 -87.9667 253° West 184 212 2,800  Level Chicago TRACON
Tue 06:39:00 PM 41.8720 -88.3451 242° Southwest  Level FlightAware Approximate
Tue 06:39:37 PM 42.1181 -88.0711 323° Northwest 250 288 7,400  Level Chicago Center
Tue 06:40:00 PM 41.8316 -88.4910 254° West  Level FlightAware Approximate
Tue 06:40:39 PM 42.1172 -88.1681 269° West 280 322 10,300  Level Chicago Center
Tue 06:41:00 PM 41.7985 -88.6411 254° West  Level FlightAware Approximate
Tue 06:41:41 PM 42.0747 -88.2592 238° Southwest 292 336 12,800  Level Chicago Center
Tue 06:42:00 PM 41.7652 -88.7910 253° West  Level FlightAware Approximate
Tue 06:42:43 PM 42.0203 -88.3753 238° Southwest 307 353 14,800  Level Chicago Center
Tue 06:43:45 PM 41.9650 -88.4858 236° Southwest 351 404 16,800 1,984 Climbing Chicago Center
Tue 06:44:47 PM 41.9200 -88.6036 243° Southwest 362 417 18,900 1,839 Climbing Chicago Center
Tue 06:45:49 PM 41.8928 -88.7392 255° West 379 436 20,600 2,112 Climbing Chicago Center
Tue 06:46:52 PM 41.8464 -88.8989 249° West 385 443 23,300 1,920 Climbing Chicago Center
Tue 06:47:54 PM 41.8081 -89.0356 249° West 393 452 24,600 1,306 Climbing Chicago Center
Tue 06:48:56 PM 41.7656 -89.1750 248° West 406 467 26,000 1,452 Climbing Chicago Center
Tue 06:49:58 PM 41.7236 -89.3194 249° West 417 480 27,600 968 Climbing Chicago Center
Tue 06:51:00 PM 41.6825 -89.4611 249° West 414 476 28,000 823 Climbing Chicago Center
Tue 06:52:02 PM 41.6347 -89.6136 247° West 411 473 29,300 1,403 Climbing Chicago Center
Tue 06:53:04 PM 41.5942 -89.7517 249° West 404 465 30,900 1,306 Climbing Chicago Center
Tue 06:54:06 PM 41.5536 -89.8861 248° West 397 457 32,000 532 Climbing Chicago Center
Tue 06:55:08 PM 41.5044 -90.0481 248° West 394 453 32,000  Level Chicago Center
Tue 06:56:11 PM 41.4631 -90.1836 248° West 396 456 32,000  Level Chicago Center
Tue 06:57:13 PM 41.4225 -90.3181 248° West 396 456 32,000  Level Chicago Center
Tue 06:58:15 PM 41.3794 -90.4533 247° West 397 457 32,000  Level Chicago Center
Tue 06:59:17 PM 41.3378 -90.5894 248° West 399 459 32,000  Level Chicago Center
Tue 07:00:19 PM 41.2622 -90.7408 236° Southwest 408 470 32,000  Level Chicago Center
Tue 07:01:21 PM 41.1917 -90.8586 232° Southwest 409 471 32,000  Level Chicago Center
Tue 07:02:23 PM 41.1214 -90.9772 232° Southwest 411 473 32,000  Level Chicago Center
Tue 07:03:25 PM 41.0514 -91.0956 232° Southwest 409 471 32,000  Level Chicago Center
Tue 07:04:27 PM 40.9800 -91.2144 232° Southwest 414 476 32,000  Level Chicago Center
Tue 07:05:29 PM 40.9003 -91.3481 232° Southwest 411 473 32,000  Level Chicago Center
Tue 07:06:32 PM 40.8281 -91.4672 231° Southwest 417 480 32,000  Level Chicago Center
Tue 07:07:34 PM 40.7561 -91.5864 231° Southwest 418 481 32,000  Level Chicago Center
Tue 07:08:36 PM 40.6844 -91.7036 231° Southwest 416 479 32,000  Level Chicago Center
Tue 07:09:38 PM 40.5978 -91.8456 231° Southwest 417 480 32,000  Level Chicago Center
Tue 07:10:40 PM 40.5250 -91.9633 231° Southwest 418 481 32,000  Level Chicago Center
Tue 07:11:42 PM 40.4528 -92.0811 231° Southwest 417 480 32,000  Level Chicago Center
Tue 07:12:29 PM 40.3944 -92.1758 231° Southwest 417 480 32,000  Level Kansas City Center
Tue 07:13:31 PM 40.3214 -92.2931 231° Southwest 417 480 32,000  Level Kansas City Center
Tue 07:14:33 PM 40.2375 -92.4250 230° Southwest 415 478 32,000  Level Kansas City Center
Tue 07:15:35 PM 40.1667 -92.5386 231° Southwest 419 482 32,000  Level Kansas City Center
Tue 07:16:37 PM 40.0764 -92.6561 225° Southwest 412 474 32,000  Level Kansas City Center
Tue 07:17:40 PM 39.9781 -92.7550 218° Southwest 427 491 32,000  Level Kansas City Center
Tue 07:18:42 PM 39.8842 -92.8519 218° Southwest 430 495 32,000  Level Kansas City Center
Tue 07:19:44 PM 39.7917 -92.9483 219° Southwest 430 495 32,000  Level Kansas City Center
Tue 07:20:46 PM 39.7011 -93.0481 220° Southwest 430 495 32,000  Level Kansas City Center
Tue 07:21:48 PM 39.6072 -93.1422 218° Southwest 432 497 32,000 532 Level Kansas City Center
Tue 07:22:50 PM 39.4939 -93.2569 218° Southwest 432 497 33,100 968 Climbing Kansas City Center
Tue 07:23:52 PM 39.4019 -93.3528 219° Southwest 430 495 34,000 435 Climbing Kansas City Center
Tue 07:24:54 PM 39.3089 -93.4483 218° Southwest 430 495 34,000  Level Kansas City Center
Tue 07:25:56 PM 39.2081 -93.5539 219° Southwest 426 490 34,000  Level Kansas City Center
Tue 07:26:58 PM 39.1178 -93.6456 218° Southwest 429 494 34,000  Level Kansas City Center
Tue 07:28:00 PM 39.0122 -93.7525 218° Southwest 431 496 34,000  Level Kansas City Center
Tue 07:29:02 PM 38.9219 -93.8447 218° Southwest 431 496 34,000  Level Kansas City Center
Tue 07:30:04 PM 38.8158 -93.9506 218° Southwest 431 496 34,000  Level Kansas City Center
Tue 07:31:06 PM 38.7258 -94.0411 218° Southwest 430 495 34,000  Level Kansas City Center
Tue 07:32:08 PM 38.6200 -94.1458 218° Southwest 429 494 34,000  Level Kansas City Center
Tue 07:33:10 PM 38.5283 -94.2361 218° Southwest 432 497 34,000  Level Kansas City Center
Tue 07:34:12 PM 38.4358 -94.3281 218° Southwest 435 501 34,000  Level Kansas City Center
Tue 07:35:14 PM 38.3289 -94.4314 217° Southwest 432 497 34,000  Level Kansas City Center
Tue 07:36:16 PM 38.2311 -94.5128 213° Southwest 438 504 34,000  Level Kansas City Center
Tue 07:37:18 PM 38.1064 -94.5944 207° Southwest 448 516 34,000  Level Kansas City Center
Tue 07:38:20 PM 38.0011 -94.6611 207° Southwest 444 511 34,000  Level Kansas City Center
Tue 07:39:22 PM 37.8783 -94.7411 207° Southwest 443 510 34,000  Level Kansas City Center
Tue 07:40:24 PM 37.7719 -94.8067 206° Southwest 443 510 34,000  Level Kansas City Center
Tue 07:41:26 PM 37.6467 -94.8878 207° Southwest 446 513 34,000  Level Kansas City Center
Tue 07:42:28 PM 37.5350 -94.9561 206° Southwest 447 514 34,000  Level Kansas City Center
Tue 07:43:30 PM 37.4231 -95.0258 206° Southwest 448 516 34,000  Level Kansas City Center
Tue 07:44:32 PM 37.3122 -95.0969 207° Southwest 447 514 34,000  Level Kansas City Center
Tue 07:45:34 PM 37.2003 -95.1669 206° Southwest 449 517 34,000  Level Kansas City Center
Tue 07:46:36 PM 37.0883 -95.2367 206° Southwest 449 517 34,000  Level Kansas City Center
Tue 07:47:38 PM 36.9533 -95.3217 207° Southwest 452 520 34,000  Level Kansas City Center
Tue 07:48:41 PM 36.8422 -95.3928 207° Southwest 451 519 34,000  Level Kansas City Center
Tue 07:49:42 PM 36.7517 -95.4964 223° Southwest 446 513 34,000  Level Kansas City Center
Tue 07:50:44 PM 36.6614 -95.6000 223° Southwest 446 513 34,000  Level Kansas City Center
Tue 07:51:46 PM 36.5669 -95.7100 223° Southwest 447 514 34,000  Level Kansas City Center
Tue 07:52:48 PM 36.4625 -95.8286 222° Southwest 448 516 34,000  Level Kansas City Center
Tue 07:53:50 PM 36.3725 -95.9317 223° Southwest 446 513 34,000  Level Kansas City Center
Tue 07:54:52 PM 36.2833 -96.0364 223° Southwest 444 511 34,000  Level Kansas City Center
Tue 07:55:54 PM 36.1944 -96.1408 223° Southwest 442 509 34,000  Level Kansas City Center
Tue 07:56:56 PM 36.0908 -96.2208 212° Southwest 454 522 34,000  Level Kansas City Center
Tue 07:57:58 PM 35.9403 -96.2550 190° South 465 535 34,000  Level Kansas City Center
Tue 07:59:00 PM 35.8156 -96.2867 192° South 460 529 34,000  Level Kansas City Center
Tue 08:00:02 PM 35.7042 -96.3139 191° South 459 528 34,000  Level Kansas City Center
Tue 08:01:04 PM 35.5528 -96.3506 191° South 460 529 34,000  Level Kansas City Center
Tue 08:02:06 PM 35.4281 -96.3828 192° South 458 527 34,000  Level Kansas City Center
Tue 08:03:08 PM 35.3019 -96.4125 191° South 458 527 34,000  Level Kansas City Center
Tue 08:04:10 PM 35.1769 -96.4444 192° South 458 527 34,000  Level Kansas City Center
Tue 08:05:12 PM 35.0511 -96.4747 191° South 458 527 34,000  Level Kansas City Center
Tue 08:06:14 PM 34.9258 -96.5056 191° South 457 526 34,000  Level Kansas City Center
Tue 08:07:14 PM 34.7919 -96.5386 191° South 468 539 34,000  Level Fort Worth Center
Tue 08:08:14 PM 34.6650 -96.5703 192° South 468 539 34,000  Level Fort Worth Center
Tue 08:09:15 PM 34.5400 -96.6017 192° South 468 539 34,000  Level Fort Worth Center
Tue 08:10:14 PM 34.4131 -96.6306 191° South 468 539 34,000  Level Fort Worth Center
Tue 08:11:15 PM 34.2858 -96.6619 192° South 468 539 34,000  Level Fort Worth Center
Tue 08:12:14 PM 34.1608 -96.6931 192° South 468 539 34,000  Level Fort Worth Center
Tue 08:13:14 PM 34.0275 -96.7219 190° South 460 529 34,000  Level Fort Worth Center
Tue 08:14:15 PM 33.9025 -96.7528 192° South 460 529 34,000  Level Fort Worth Center
Tue 08:15:15 PM 33.7772 -96.7814 191° South 460 529 34,000  Level Fort Worth Center
Tue 08:16:15 PM 33.6544 -96.8122 192° South 455 524 34,000  Level Fort Worth Center
Tue 08:17:15 PM 33.5272 -96.8403 190° South 455 524 34,000  Level Fort Worth Center
Tue 08:18:15 PM 33.3978 -96.8636 189° South 465 535 34,000  Level Fort Worth Center
Tue 08:19:15 PM 33.2686 -96.8842 188° South 465 535 34,000  Level Fort Worth Center
Tue 08:20:15 PM 33.1558 -96.9022 188° South 465 535 34,000  Level Fort Worth Center
Tue 08:21:15 PM 33.0100 -96.9253 188° South 470 541 34,000  Level Fort Worth Center
Tue 08:22:15 PM 32.8825 -96.9458 188° South 476 548 34,000  Level Fort Worth Center
Tue 08:23:15 PM 32.7783 -96.9636 188° South 469 540 34,000  Level Fort Worth Center
Tue 08:24:15 PM 32.6344 -96.9867 188° South 469 540 34,000  Level Fort Worth Center
Tue 08:25:15 PM 32.5050 -97.0094 188° South 469 540 34,000 -250 Level Fort Worth Center
Tue 08:26:15 PM 32.3736 -97.0272 187° South 474 545 33,500 -750 Descending Fort Worth Center
Tue 08:27:15 PM 32.2442 -97.0475 188° South 474 545 32,500 -1,008 Descending Fort Worth Center
Tue 08:28:14 PM 32.1106 -97.0700 188° South 479 551 31,500 -958 Descending Fort Worth Center
Tue 08:29:14 PM 31.9811 -97.0900 187° South 484 557 30,600 -942 Descending Fort Worth Center
Tue 08:30:15 PM 31.8517 -97.1125 188° South 476 548 29,600 -1,062 Descending Fort Worth Center
Tue 08:31:07 PM 31.7231 -97.1311 187° South 476 548 28,600 -1,105 Descending Houston Center
Tue 08:32:09 PM 31.5881 -97.1517 187° South 484 557 27,500 -1,073 Descending Houston Center
Tue 08:33:10 PM 31.4539 -97.1728 188° South 481 554 26,400 -1,707 Descending Houston Center
Tue 08:34:12 PM 31.3247 -97.1914 187° South 465 535 24,000 -2,323 Descending Houston Center
Tue 08:35:14 PM 31.2011 -97.2128 188° South 448 516 21,600 -2,732 Descending Houston Center
Tue 08:36:15 PM 31.0897 -97.2569 199° South 420 483 18,400 -2,976 Descending Houston Center
Tue 08:37:17 PM 30.9867 -97.2969 198° South 398 458 15,500 -2,468 Descending Houston Center
Tue 08:38:19 PM 30.8717 -97.3406 198° South 386 444 13,300 -1,984 Descending Houston Center
Tue 08:39:21 PM 30.7856 -97.3939 208° Southwest 347 399 11,400 -1,561 Descending Houston Center
Tue 08:40:22 PM 30.7114 -97.4447 211° Southwest 314 361 10,100 -1,659 Descending Houston Center
Tue 08:41:24 PM 30.6450 -97.4900 210° Southwest 284 327 8,000 -1,839 Descending Houston Center
Tue 08:42:26 PM 30.5794 -97.5333 210° Southwest 271 312 6,300 -1,756 Descending Houston Center
Tue 08:43:27 PM 30.5161 -97.5758 210° Southwest 262 302 4,400 -1,512 Descending Houston Center
Tue 08:44:29 PM 30.4586 -97.6139 210° Southwest 246 283 3,200 -823 Descending Houston Center
Tue 08:45:31 PM 30.4089 -97.6428 207° Southwest 214 246 2,700 -341 Descending Houston Center
Tue 08:46:32 PM 30.3508 -97.6767 207° Southwest 201 231 2,500 -197 Descending Houston Center

Login

Don't have an account? Register now (free) for customized features, flight alerts, and more!